Deer Park, Maryland
Current Conditions -  °F | °C
As of 8:35 PM on Friday 24 Oct 2014 (Local Time) from K2G4 Reporting Station
Clear Clear  
Wind Chill: 40°   Ceiling: Unl
Heat Index: 45°   Visibility: 10mi
Dew Point: 34°   Wind: 8mph
Humidity: 66%   Direction: 280°W
Pressure: 30.02"   Gusts: NA
Location:  39.3804°N, 79.3888°W
Report Text: K2G4 250035Z AUTO 28007KT 10SM CLR 07/01 A3002 RMK AO1
Loading
Personal Weather Stations






























Interactive Weather Map
Tropical Storm Tracking
New forecast layout! Learn more

10-Day Weather Forecast

Advertisements
Track Severe Weather on mobile